Time;durP1;ratioP1;P1;durP2;ratioP2;P2;SDS_P1;SDS_P2;PMS_P1;PMS_P2;Temp;Humidity;BMP_temperature;BMP_pressure;BME280_temperature;BME280_humidity;BME280_pressure;Samples;Min_cycle;Max_cycle;Signal;HPM_P1;HPM_P2
2022/04/05 00:02:13;;;;;;;8.93;3.25;;;;;;;;;;5103597;28;20577;-79
2022/04/05 00:04:39;;;;;;;8.98;3.15;;;;;;;;;;5107162;28;20060;-79
2022/04/05 00:07:06;;;;;;;9.52;3.47;;;;;;;;;;5105136;28;20074;-78
2022/04/05 00:09:32;;;;;;;7.35;3.10;;;;;;;;;;5084983;28;20109;-78
2022/04/05 00:11:58;;;;;;;10.73;2.65;;;;;;;;;;5108844;28;20129;-79
2022/04/05 00:14:25;;;;;;;10.90;3.08;;;;;;;;;;5109165;28;20054;-80
2022/04/05 00:16:51;;;;;;;6.57;2.20;;;;;;;;;;5108836;28;20141;-79
2022/04/05 00:19:19;;;;;;;8.60;2.50;;;;;;;;;;5104398;28;20075;-78
2022/04/05 00:21:45;;;;;;;7.20;2.35;;;;;;;;;;5108243;28;20055;-81
2022/04/05 00:24:12;;;;;;;7.28;2.15;;;;;;;;;;5108660;28;20087;-79
2022/04/05 00:26:38;;;;;;;5.50;1.95;;;;;;;;;;5109347;28;20056;-79
2022/04/05 00:29:04;;;;;;;5.38;1.90;;;;;;;;;;5107644;28;20052;-78
2022/04/05 00:31:31;;;;;;;5.47;1.77;;;;;;;;;;5106309;28;20093;-78
2022/04/05 00:33:57;;;;;;;5.68;1.50;;;;;;;;;;5108607;28;20108;-78
2022/04/05 00:36:24;;;;;;;5.50;1.70;;;;;;;;;;5108658;28;20056;-79
2022/04/05 00:38:50;;;;;;;6.50;1.75;;;;;;;;;;5108083;28;20059;-81
2022/04/05 00:41:19;;;;;;;4.65;1.48;;;;;;;;;;5104167;28;20576;-79
2022/04/05 00:43:45;;;;;;;5.50;1.80;;;;;;;;;;5108602;28;20091;-79
2022/04/05 00:46:11;;;;;;;5.40;1.80;;;;;;;;;;5090554;28;20144;-79
2022/04/05 00:48:48;;;;;;;5.93;1.80;;;;;;;;;;5103867;28;20087;-79
2022/04/05 00:51:16;;;;;;;6.05;1.60;;;;;;;;;;5111779;28;20922;-78
2022/04/05 00:53:50;;;;;;;7.15;1.70;;;;;;;;;;5108413;28;20045;-77
2022/04/05 00:56:17;;;;;;;5.75;1.67;;;;;;;;;;5092574;28;20044;-79
2022/04/05 00:58:46;;;;;;;5.97;1.60;;;;;;;;;;5094222;28;20048;-79
2022/04/05 01:01:16;;;;;;;5.50;1.58;;;;;;;;;;5094037;28;20048;-79
2022/04/05 01:03:48;;;;;;;4.43;1.70;;;;;;;;;;5092645;28;20063;-80
2022/04/05 01:06:30;;;;;;;5.18;1.60;;;;;;;;;;5109517;28;20109;-80
2022/04/05 01:08:57;;;;;;;7.38;1.65;;;;;;;;;;5094266;28;20090;-78
2022/04/05 01:11:23;;;;;;;4.20;1.38;;;;;;;;;;5111042;28;20141;-80
2022/04/05 01:13:50;;;;;;;4.72;1.58;;;;;;;;;;5088465;28;20209;-78
2022/04/05 01:16:18;;;;;;;7.10;1.90;;;;;;;;;;5090751;28;20140;-77
2022/04/05 01:18:45;;;;;;;4.93;1.40;;;;;;;;;;5094266;28;20052;-80
2022/04/05 01:21:11;;;;;;;5.32;1.70;;;;;;;;;;5108748;28;20049;-79
2022/04/05 01:24:01;;;;;;;4.35;1.80;;;;;;;;;;5109846;27;20091;-78
2022/04/05 01:26:28;;;;;;;8.63;2.50;;;;;;;;;;5111972;28;20052;-80
2022/04/05 01:28:54;;;;;;;6.07;1.90;;;;;;;;;;5111899;28;20083;-77
2022/04/05 01:31:21;;;;;;;7.85;2.10;;;;;;;;;;5111168;28;20133;-77
2022/04/05 01:33:47;;;;;;;8.82;1.90;;;;;;;;;;5093151;28;20056;-79
2022/04/05 01:36:21;;;;;;;8.73;2.05;;;;;;;;;;5094066;28;20137;-79
2022/04/05 01:38:47;;;;;;;7.30;2.45;;;;;;;;;;5110239;28;20967;-79
2022/04/05 01:41:14;;;;;;;4.57;1.85;;;;;;;;;;5104740;28;20081;-78
2022/04/05 01:43:40;;;;;;;6.95;2.53;;;;;;;;;;5093490;28;20063;-79
2022/04/05 01:46:07;;;;;;;7.22;2.50;;;;;;;;;;5112203;28;20110;-79
2022/04/05 01:48:33;;;;;;;6.28;2.28;;;;;;;;;;5110576;28;20079;-79
2022/04/05 01:50:59;;;;;;;6.28;2.30;;;;;;;;;;5092617;28;20954;-79
2022/04/05 01:53:26;;;;;;;7.60;2.10;;;;;;;;;;5110903;28;20075;-78
2022/04/05 01:55:52;;;;;;;5.75;2.10;;;;;;;;;;5110716;28;20040;-79
2022/04/05 01:58:18;;;;;;;5.55;1.90;;;;;;;;;;5112839;28;20098;-79
2022/04/05 02:00:45;;;;;;;5.60;1.77;;;;;;;;;;5110360;28;20548;-79
2022/04/05 02:03:11;;;;;;;4.47;1.70;;;;;;;;;;5094084;28;20070;-78
2022/04/05 02:05:38;;;;;;;4.82;1.95;;;;;;;;;;5110604;28;20139;-78
2022/04/05 02:08:05;;;;;;;5.32;1.77;;;;;;;;;;5110386;28;20032;-79
2022/04/05 02:10:31;;;;;;;5.38;1.60;;;;;;;;;;5110412;28;21111;-79
2022/04/05 02:12:58;;;;;;;4.60;1.70;;;;;;;;;;5093019;28;20491;-79
2022/04/05 02:15:25;;;;;;;5.22;1.80;;;;;;;;;;5103772;28;20102;-78
2022/04/05 02:17:52;;;;;;;5.55;1.67;;;;;;;;;;5110184;28;20109;-79
2022/04/05 02:20:18;;;;;;;4.25;1.52;;;;;;;;;;5107521;28;20126;-79
2022/04/05 02:22:44;;;;;;;5.00;1.48;;;;;;;;;;5110008;28;20048;-79
2022/04/05 02:25:11;;;;;;;7.65;2.00;;;;;;;;;;5093589;28;20114;-79
2022/04/05 02:27:41;;;;;;;6.78;1.67;;;;;;;;;;5114924;28;20490;-79
2022/04/05 02:30:07;;;;;;;4.03;1.55;;;;;;;;;;5093137;28;20059;-79
2022/04/05 02:32:34;;;;;;;5.05;2.03;;;;;;;;;;5110657;27;20117;-78
2022/04/05 02:35:00;;;;;;;3.67;1.38;;;;;;;;;;5113725;28;20110;-79
2022/04/05 02:37:26;;;;;;;4.90;1.70;;;;;;;;;;5113613;28;20044;-79
2022/04/05 02:39:53;;;;;;;5.85;1.88;;;;;;;;;;5096706;28;20086;-79
2022/04/05 02:42:19;;;;;;;8.68;1.80;;;;;;;;;;5096358;28;20106;-78
2022/04/05 02:44:46;;;;;;;5.75;1.75;;;;;;;;;;5110608;28;20078;-79
2022/04/05 02:47:14;;;;;;;5.47;1.95;;;;;;;;;;5114128;28;20058;-79
2022/04/05 02:49:41;;;;;;;5.97;1.92;;;;;;;;;;5106000;28;21559;-78
2022/04/05 02:52:07;;;;;;;10.35;2.10;;;;;;;;;;5113063;28;20052;-79
2022/04/05 02:54:33;;;;;;;5.78;2.00;;;;;;;;;;5114409;28;20071;-79
2022/04/05 02:57:00;;;;;;;7.03;2.08;;;;;;;;;;5096241;28;20488;-79
2022/04/05 02:59:26;;;;;;;4.65;2.00;;;;;;;;;;5095722;28;20052;-79
2022/04/05 03:01:53;;;;;;;8.45;2.72;;;;;;;;;;5094472;28;20066;-79
2022/04/05 03:04:19;;;;;;;5.88;2.28;;;;;;;;;;5108243;28;20083;-79
2022/04/05 03:06:45;;;;;;;7.93;2.97;;;;;;;;;;5111672;28;20082;-79
2022/04/05 03:09:12;;;;;;;9.40;2.60;;;;;;;;;;5113325;28;20122;-79
2022/04/05 03:11:38;;;;;;;9.52;2.60;;;;;;;;;;5112727;28;20079;-79
2022/04/05 03:14:04;;;;;;;7.38;2.90;;;;;;;;;;5095059;28;20102;-79
2022/04/05 03:16:31;;;;;;;7.75;2.90;;;;;;;;;;5114195;28;20396;-79
2022/04/05 03:18:57;;;;;;;7.78;3.10;;;;;;;;;;5094045;28;20048;-79
2022/04/05 03:21:24;;;;;;;9.23;3.20;;;;;;;;;;5106829;28;20213;-78
2022/04/05 03:23:50;;;;;;;9.05;3.17;;;;;;;;;;5094792;28;20114;-78
2022/04/05 03:26:16;;;;;;;8.05;3.38;;;;;;;;;;5110946;28;20125;-79
2022/04/05 03:28:43;;;;;;;9.95;4.03;;;;;;;;;;5113174;28;20051;-78
2022/04/05 03:31:09;;;;;;;10.93;4.20;;;;;;;;;;5113551;28;20101;-79
2022/04/05 03:33:35;;;;;;;11.93;4.10;;;;;;;;;;5095016;28;20963;-78
2022/04/05 03:36:02;;;;;;;11.88;4.55;;;;;;;;;;5112845;27;20084;-79
2022/04/05 03:38:29;;;;;;;11.60;4.43;;;;;;;;;;5112153;28;20048;-79
2022/04/05 03:40:55;;;;;;;14.77;5.47;;;;;;;;;;5094452;28;20785;-78
2022/04/05 03:43:21;;;;;;;11.68;4.82;;;;;;;;;;5111936;28;20113;-78
2022/04/05 03:45:49;;;;;;;14.35;5.40;;;;;;;;;;5112936;28;20052;-78
2022/04/05 03:48:16;;;;;;;14.30;5.47;;;;;;;;;;5094463;28;20135;-78
2022/04/05 03:50:45;;;;;;;14.38;5.97;;;;;;;;;;5094775;28;20170;-78
2022/04/05 03:53:11;;;;;;;14.07;5.25;;;;;;;;;;5111518;28;20052;-78
2022/04/05 03:55:56;;;;;;;20.63;5.78;;;;;;;;;;5112351;28;20051;-78
2022/04/05 09:35:09;;;;;;;9.77;4.53;;;;;;;;;;5410388;23;20105;-76
2022/04/05 09:37:39;;;;;;;8.90;4.35;;;;;;;;;;4990760;28;20137;-77
2022/04/05 09:40:35;;;;;;;11.48;4.93;;;;;;;;;;5007742;28;20086;-76
2022/04/05 09:43:22;;;;;;;13.65;5.78;;;;;;;;;;4984098;28;20069;-78
2022/04/05 09:45:51;;;;;;;10.95;4.75;;;;;;;;;;4974891;28;20051;-76
2022/04/05 09:48:18;;;;;;;11.88;4.85;;;;;;;;;;4991713;28;20069;-78
2022/04/05 09:51:03;;;;;;;14.95;5.38;;;;;;;;;;5001282;28;20141;-77
2022/04/05 09:53:30;;;;;;;13.00;4.90;;;;;;;;;;4967148;28;20039;-77
2022/04/05 09:56:11;;;;;;;11.63;4.80;;;;;;;;;;4973934;28;20057;-78
2022/04/05 09:58:43;;;;;;;14.80;5.35;;;;;;;;;;4964935;28;20154;-78
2022/04/05 10:01:11;;;;;;;11.77;5.03;;;;;;;;;;4973370;28;20090;-77
2022/04/05 10:03:39;;;;;;;12.10;5.45;;;;;;;;;;4980441;28;20533;-78
2022/04/05 10:06:06;;;;;;;11.02;5.20;;;;;;;;;;4974178;28;20047;-77
2022/04/05 10:08:33;;;;;;;11.60;5.38;;;;;;;;;;4992878;28;20454;-81
2022/04/05 10:11:00;;;;;;;12.90;5.55;;;;;;;;;;4977394;28;20051;-78
2022/04/05 10:13:27;;;;;;;11.68;5.43;;;;;;;;;;4988895;28;20130;-78
2022/04/05 10:15:54;;;;;;;18.90;5.80;;;;;;;;;;4977930;28;20077;-78
2022/04/05 10:18:20;;;;;;;10.75;5.57;;;;;;;;;;4973393;28;20051;-79
2022/04/05 10:20:48;;;;;;;11.57;5.38;;;;;;;;;;4994016;28;20062;-79
2022/04/05 10:23:20;;;;;;;13.68;5.20;;;;;;;;;;4995229;28;20086;-78
2022/04/05 10:25:51;;;;;;;10.75;4.97;;;;;;;;;;4981738;28;20051;-78
2022/04/05 10:28:20;;;;;;;15.90;5.28;;;;;;;;;;4969811;28;20059;-78
2022/04/05 10:31:01;;;;;;;14.68;4.70;;;;;;;;;;4977697;28;20142;-78
2022/04/05 10:33:33;;;;;;;12.80;5.18;;;;;;;;;;4994432;28;20055;-77
2022/04/05 10:36:00;;;;;;;14.02;4.70;;;;;;;;;;4980344;28;20091;-79
2022/04/05 10:38:28;;;;;;;11.52;4.70;;;;;;;;;;4971150;28;20055;-79
2022/04/05 10:41:12;;;;;;;9.32;4.05;;;;;;;;;;4973426;28;20059;-78
2022/04/05 10:43:40;;;;;;;9.93;4.72;;;;;;;;;;4975445;28;20074;-79
2022/04/05 10:46:07;;;;;;;12.93;5.00;;;;;;;;;;4989257;28;20058;-78
2022/04/05 10:48:34;;;;;;;11.30;5.10;;;;;;;;;;4972615;28;20090;-78
2022/04/05 10:51:00;;;;;;;10.02;4.40;;;;;;;;;;4993726;28;20522;-79
2022/04/05 10:53:34;;;;;;;8.63;4.40;;;;;;;;;;4976286;28;20106;-76
2022/04/05 10:56:03;;;;;;;10.90;4.50;;;;;;;;;;4976363;28;20058;-79
2022/04/05 10:58:30;;;;;;;11.32;4.47;;;;;;;;;;4992923;28;20066;-79
2022/04/05 11:01:12;;;;;;;10.18;3.63;;;;;;;;;;4972258;28;20260;-79
2022/04/05 11:03:39;;;;;;;12.60;4.60;;;;;;;;;;4984497;28;20050;-78
2022/04/05 11:06:06;;;;;;;10.88;4.30;;;;;;;;;;4979904;28;20054;-78
2022/04/05 11:08:32;;;;;;;10.90;4.22;;;;;;;;;;4969622;28;20078;-78
2022/04/05 11:11:00;;;;;;;10.20;4.50;;;;;;;;;;4973240;28;20467;-79
2022/04/05 11:13:34;;;;;;;10.50;3.97;;;;;;;;;;4967279;28;20086;-79
2022/04/05 11:16:01;;;;;;;7.10;3.75;;;;;;;;;;4974418;28;20055;-79
2022/04/05 11:18:34;;;;;;;11.05;4.07;;;;;;;;;;4976712;28;20055;-78
2022/04/05 11:21:05;;;;;;;9.98;3.85;;;;;;;;;;4982696;28;20078;-78
2022/04/05 11:23:39;;;;;;;10.10;3.72;;;;;;;;;;4992975;28;20062;-79
2022/04/05 11:26:22;;;;;;;11.13;4.15;;;;;;;;;;4985700;28;20090;-79
2022/04/05 11:28:52;;;;;;;7.97;3.30;;;;;;;;;;4990344;28;20100;-80
2022/04/05 11:31:29;;;;;;;8.55;3.53;;;;;;;;;;4970237;28;20209;-78
2022/04/05 11:33:55;;;;;;;8.65;3.72;;;;;;;;;;4972964;28;20051;-79
2022/04/05 11:36:25;;;;;;;8.60;3.85;;;;;;;;;;4989275;28;20138;-80
2022/04/05 11:38:58;;;;;;;12.07;4.30;;;;;;;;;;4990527;28;20058;-79
2022/04/05 11:41:25;;;;;;;6.78;3.60;;;;;;;;;;4974878;28;20142;-78
2022/04/05 11:43:52;;;;;;;10.40;3.60;;;;;;;;;;4991490;28;20061;-79
2022/04/05 11:46:27;;;;;;;7.88;3.55;;;;;;;;;;4974226;28;20058;-79
2022/04/05 11:49:05;;;;;;;9.65;3.88;;;;;;;;;;4974306;28;20150;-79
2022/04/05 11:51:35;;;;;;;8.40;3.53;;;;;;;;;;4988223;28;20939;-79
2022/04/05 11:54:03;;;;;;;12.10;3.95;;;;;;;;;;4970482;28;20051;-79
2022/04/05 11:56:29;;;;;;;10.88;4.07;;;;;;;;;;4972015;28;20079;-79
2022/04/05 11:58:57;;;;;;;8.45;3.92;;;;;;;;;;4968403;28;20059;-79
2022/04/05 12:01:30;;;;;;;8.60;3.88;;;;;;;;;;4991657;28;20091;-79
2022/04/05 12:03:58;;;;;;;11.35;4.55;;;;;;;;;;4972309;28;20106;-78
2022/04/05 12:06:37;;;;;;;9.50;4.45;;;;;;;;;;4985842;28;20050;-78
2022/04/05 12:09:04;;;;;;;8.98;4.65;;;;;;;;;;4987980;28;20090;-78
2022/04/05 12:11:31;;;;;;;8.27;3.97;;;;;;;;;;4971453;28;20047;-77
2022/04/05 12:14:02;;;;;;;11.88;4.93;;;;;;;;;;4971625;28;20197;-78
2022/04/05 12:16:29;;;;;;;10.82;4.15;;;;;;;;;;4971346;28;20094;-78
2022/04/05 12:18:56;;;;;;;10.65;4.32;;;;;;;;;;4976596;28;20093;-78
2022/04/05 12:21:24;;;;;;;8.93;4.25;;;;;;;;;;4979054;28;20106;-78
2022/04/05 12:23:51;;;;;;;9.73;4.22;;;;;;;;;;4975629;28;20078;-78
2022/04/05 12:26:19;;;;;;;10.15;4.40;;;;;;;;;;4978564;28;20054;-77
2022/04/05 12:28:48;;;;;;;10.00;4.32;;;;;;;;;;4976790;28;20055;-77
2022/04/05 12:31:15;;;;;;;8.77;4.50;;;;;;;;;;4986459;28;20083;-78
2022/04/05 12:33:53;;;;;;;9.95;4.63;;;;;;;;;;4972168;28;20608;-78
2022/04/05 12:36:20;;;;;;;10.30;4.82;;;;;;;;;;4990348;28;20145;-78
2022/04/05 12:38:48;;;;;;;10.80;4.35;;;;;;;;;;4973207;28;20081;-79
2022/04/05 12:41:18;;;;;;;9.13;4.70;;;;;;;;;;4974657;28;20137;-79
2022/04/05 12:44:01;;;;;;;8.77;4.28;;;;;;;;;;4973698;28;20059;-78
2022/04/05 12:46:34;;;;;;;8.73;4.45;;;;;;;;;;4973043;28;20592;-79
2022/04/05 12:49:16;;;;;;;9.07;4.50;;;;;;;;;;4984667;28;20051;-78
2022/04/05 12:52:06;;;;;;;6.10;3.50;;;;;;;;;;4972498;28;20155;-78
2022/04/05 12:54:34;;;;;;;9.10;4.18;;;;;;;;;;4971216;28;20082;-78
2022/04/05 12:57:13;;;;;;;8.25;4.13;;;;;;;;;;4973286;28;20087;-79
2022/04/05 12:59:39;;;;;;;8.05;4.22;;;;;;;;;;4973685;28;20501;-77
2022/04/05 13:02:05;;;;;;;8.23;4.05;;;;;;;;;;4971370;28;20103;-77
2022/04/05 13:04:35;;;;;;;8.88;3.83;;;;;;;;;;4988359;28;20055;-79
2022/04/05 13:07:03;;;;;;;9.45;4.28;;;;;;;;;;4972670;28;20114;-78
2022/04/05 13:09:30;;;;;;;8.38;4.30;;;;;;;;;;4983568;28;20141;-78
2022/04/05 13:12:13;;;;;;;10.35;3.83;;;;;;;;;;4972728;28;20589;-78
2022/04/05 13:14:40;;;;;;;8.13;4.22;;;;;;;;;;4980487;28;20841;-78
2022/04/05 13:17:06;;;;;;;10.00;4.68;;;;;;;;;;4971379;28;20101;-78
2022/04/05 13:19:33;;;;;;;12.45;4.28;;;;;;;;;;4969993;28;20058;-78
2022/04/05 13:21:59;;;;;;;8.77;4.50;;;;;;;;;;4990204;28;20079;-80
2022/04/05 13:24:46;;;;;;;9.73;4.53;;;;;;;;;;4969340;28;20090;-78
2022/04/05 13:27:13;;;;;;;10.35;4.47;;;;;;;;;;4970262;28;20524;-77
2022/04/05 13:29:42;;;;;;;10.40;4.75;;;;;;;;;;4995511;28;20100;-77
2022/04/05 13:32:17;;;;;;;12.40;4.85;;;;;;;;;;4968597;28;20137;-79
2022/04/05 13:34:47;;;;;;;9.20;4.75;;;;;;;;;;4970020;28;20058;-78
2022/04/05 13:37:15;;;;;;;7.83;4.33;;;;;;;;;;4974155;28;20082;-77
2022/04/05 13:39:41;;;;;;;14.75;4.97;;;;;;;;;;4988007;28;20066;-78
2022/04/05 13:42:09;;;;;;;9.35;4.72;;;;;;;;;;4987390;28;20051;-78
2022/04/05 13:44:36;;;;;;;9.88;4.57;;;;;;;;;;4994019;28;20054;-77
2022/04/05 13:47:06;;;;;;;8.82;4.90;;;;;;;;;;4974154;28;20518;-79
2022/04/05 13:49:32;;;;;;;10.32;5.15;;;;;;;;;;4987536;28;20039;-79
2022/04/05 13:51:59;;;;;;;9.77;5.13;;;;;;;;;;4974636;28;20059;-77
2022/04/05 13:54:45;;;;;;;13.57;5.05;;;;;;;;;;4971100;28;20146;-78
2022/04/05 13:57:13;;;;;;;10.48;5.47;;;;;;;;;;4982000;28;20133;-77
2022/04/05 13:59:40;;;;;;;9.93;4.93;;;;;;;;;;4987759;28;20444;-79
2022/04/05 14:02:06;;;;;;;9.98;5.40;;;;;;;;;;4984308;28;20958;-79
2022/04/05 14:04:34;;;;;;;10.13;5.43;;;;;;;;;;4994131;28;20046;-79
2022/04/05 14:07:00;;;;;;;12.70;6.50;;;;;;;;;;4989852;28;20051;-76
2022/04/05 14:09:28;;;;;;;11.88;5.80;;;;;;;;;;4987706;28;20138;-77
2022/04/05 14:11:54;;;;;;;11.77;5.22;;;;;;;;;;4987751;28;20182;-79
2022/04/05 14:14:21;;;;;;;12.18;6.07;;;;;;;;;;4984974;28;20105;-78
2022/04/05 14:16:47;;;;;;;10.32;6.22;;;;;;;;;;4986996;28;20106;-78
2022/04/05 14:19:14;;;;;;;11.63;6.63;;;;;;;;;;4988055;28;20489;-78
2022/04/05 14:21:46;;;;;;;13.15;6.65;;;;;;;;;;4984333;28;20050;-78
2022/04/05 14:24:13;;;;;;;14.13;6.70;;;;;;;;;;4972176;28;20055;-77
2022/04/05 14:26:40;;;;;;;14.73;7.10;;;;;;;;;;4991491;28;20059;-77
2022/04/05 14:29:10;;;;;;;12.82;7.03;;;;;;;;;;4973825;28;20055;-77
2022/04/05 14:31:36;;;;;;;13.95;6.65;;;;;;;;;;4985506;28;20513;-78
2022/04/05 14:34:03;;;;;;;13.30;6.45;;;;;;;;;;4987166;28;20057;-78
2022/04/05 14:36:29;;;;;;;13.73;6.75;;;;;;;;;;4990442;28;20046;-78
2022/04/05 14:39:01;;;;;;;13.13;7.53;;;;;;;;;;4988807;28;20572;-78
2022/04/05 14:41:27;;;;;;;11.77;6.55;;;;;;;;;;4990343;28;20490;-77
2022/04/05 14:43:59;;;;;;;12.80;7.15;;;;;;;;;;4989481;28;20081;-79
2022/04/05 14:46:26;;;;;;;17.42;7.10;;;;;;;;;;4987638;28;20102;-78
2022/04/05 14:48:52;;;;;;;12.73;6.60;;;;;;;;;;4972531;28;20151;-76
2022/04/05 14:51:19;;;;;;;13.77;7.22;;;;;;;;;;4969568;28;20166;-77
2022/04/05 14:53:45;;;;;;;16.73;8.02;;;;;;;;;;4971285;28;20113;-79
2022/04/05 14:56:12;;;;;;;11.00;6.82;;;;;;;;;;4973101;28;20051;-79
2022/04/05 14:58:38;;;;;;;13.77;7.50;;;;;;;;;;4990925;28;20122;-79
2022/04/05 15:01:04;;;;;;;12.80;7.25;;;;;;;;;;4968547;28;20506;-78
2022/04/05 15:03:33;;;;;;;12.48;7.85;;;;;;;;;;4985846;28;20335;-78
2022/04/05 15:06:00;;;;;;;11.73;7.13;;;;;;;;;;4987834;28;20070;-78
2022/04/05 15:08:26;;;;;;;11.25;7.00;;;;;;;;;;4974524;28;20130;-78
2022/04/05 15:10:53;;;;;;;12.43;7.72;;;;;;;;;;4977534;28;20066;-78
2022/04/05 15:13:22;;;;;;;12.07;7.47;;;;;;;;;;4973881;28;20089;-78
2022/04/05 15:15:54;;;;;;;9.13;6.55;;;;;;;;;;4989412;28;20094;-77
2022/04/05 15:18:21;;;;;;;13.38;8.23;;;;;;;;;;4991094;28;20059;-78
2022/04/05 15:20:48;;;;;;;11.18;7.88;;;;;;;;;;4984898;28;20141;-79
2022/04/05 15:23:14;;;;;;;13.07;7.90;;;;;;;;;;4969699;28;20054;-77
2022/04/05 15:25:40;;;;;;;15.05;8.45;;;;;;;;;;4990676;28;20149;-77
2022/04/05 15:28:07;;;;;;;13.32;7.47;;;;;;;;;;4965698;28;20059;-78
2022/04/05 15:30:35;;;;;;;12.32;7.45;;;;;;;;;;4965656;28;20055;-77
2022/04/05 15:33:01;;;;;;;13.15;7.60;;;;;;;;;;4976120;28;20066;-77
2022/04/05 15:35:27;;;;;;;14.52;7.88;;;;;;;;;;4988013;28;20094;-77
2022/04/05 15:37:54;;;;;;;16.88;7.53;;;;;;;;;;4989531;28;20130;-78
2022/04/05 15:40:20;;;;;;;14.40;7.93;;;;;;;;;;4984247;28;20093;-78
2022/04/05 15:42:47;;;;;;;15.80;7.80;;;;;;;;;;4971492;28;20490;-78
2022/04/05 15:45:16;;;;;;;14.40;8.00;;;;;;;;;;4980326;28;20808;-78
2022/04/05 15:47:42;;;;;;;17.63;7.80;;;;;;;;;;4972649;28;20058;-78
2022/04/05 15:50:09;;;;;;;17.08;7.60;;;;;;;;;;4972001;28;20055;-78
2022/04/05 15:52:35;;;;;;;18.50;7.90;;;;;;;;;;4989955;28;20055;-78
2022/04/05 15:55:02;;;;;;;14.07;7.70;;;;;;;;;;4989174;28;20596;-78
2022/04/05 15:57:28;;;;;;;18.42;8.20;;;;;;;;;;4989936;28;20054;-79
2022/04/05 15:59:55;;;;;;;13.95;7.05;;;;;;;;;;4989577;28;20793;-78
2022/04/05 16:02:21;;;;;;;15.02;7.13;;;;;;;;;;4989495;28;20051;-78
2022/04/05 16:04:48;;;;;;;14.32;7.07;;;;;;;;;;4988639;28;20509;-78
2022/04/05 16:07:16;;;;;;;13.38;6.72;;;;;;;;;;4973305;28;20062;-78
2022/04/05 16:09:42;;;;;;;17.45;7.55;;;;;;;;;;4971833;28;20105;-79
2022/04/05 16:12:09;;;;;;;13.95;6.55;;;;;;;;;;4963538;28;20057;-77
2022/04/05 16:14:35;;;;;;;16.42;6.53;;;;;;;;;;4989053;28;20564;-78
2022/04/05 16:17:02;;;;;;;14.88;6.97;;;;;;;;;;4988750;28;20583;-79
2022/04/05 16:19:29;;;;;;;15.98;6.78;;;;;;;;;;4969945;28;21434;-79
2022/04/05 16:21:55;;;;;;;16.73;6.63;;;;;;;;;;4965932;28;20055;-80
2022/04/05 16:24:23;;;;;;;12.90;6.72;;;;;;;;;;4960677;28;20520;-80
2022/04/05 16:26:50;;;;;;;11.13;5.78;;;;;;;;;;4969728;28;20079;-80
2022/04/05 16:29:16;;;;;;;15.95;6.10;;;;;;;;;;4971743;28;20075;-79
2022/04/05 16:31:43;;;;;;;14.30;6.40;;;;;;;;;;4989093;28;20137;-80
2022/04/05 16:34:09;;;;;;;19.73;7.60;;;;;;;;;;4971173;28;20099;-80
2022/04/05 16:36:36;;;;;;;15.25;6.28;;;;;;;;;;4971979;28;20332;-81
2022/04/05 16:39:03;;;;;;;14.15;5.95;;;;;;;;;;4970421;28;20142;-81
2022/04/05 16:41:32;;;;;;;16.80;6.68;;;;;;;;;;4988657;28;20082;-82
2022/04/05 16:43:59;;;;;;;14.38;5.72;;;;;;;;;;4988388;28;20055;-82
2022/04/05 16:46:25;;;;;;;18.20;6.25;;;;;;;;;;4972643;28;20066;-81
2022/04/05 16:48:52;;;;;;;13.70;6.30;;;;;;;;;;4972292;28;20054;-80
2022/04/05 16:51:18;;;;;;;15.15;5.95;;;;;;;;;;4970492;28;20129;-80
2022/04/05 16:53:47;;;;;;;17.83;6.10;;;;;;;;;;4975438;28;20057;-78
2022/04/05 16:56:13;;;;;;;16.40;6.43;;;;;;;;;;4973618;28;20089;-77
2022/04/05 16:58:41;;;;;;;12.65;5.75;;;;;;;;;;4987857;28;20494;-79
2022/04/05 17:02:07;;;;;;;;;;;;;;;;;;;;;
2022/04/05 17:10:46;;;;;;;16.20;6.38;;;;;;;;;;4889428;29;20076;-80
2022/04/05 17:13:45;;;;;;;16.10;6.30;;;;;;;;;;4802143;29;20529;-79
2022/04/05 17:17:04;;;;;;;15.70;5.82;;;;;;;;;;4836280;29;20066;-79
2022/04/05 17:19:55;;;;;;;18.33;6.97;;;;;;;;;;4783012;29;20059;-82
2022/04/05 17:22:43;;;;;;;18.52;6.60;;;;;;;;;;4784630;29;20067;-82
2022/04/05 17:25:50;;;;;;;15.85;6.03;;;;;;;;;;4816928;29;20054;-79
2022/04/05 17:28:38;;;;;;;18.95;8.13;;;;;;;;;;4791302;29;20055;-81
2022/04/05 17:31:47;;;;;;;16.23;7.13;;;;;;;;;;4778622;29;20067;-81
2022/04/05 17:38:24;;;;;;;16.60;8.27;;;;;;;;;;4772533;29;20052;-82
2022/04/05 17:41:08;;;;;;;15.68;8.32;;;;;;;;;;4792820;29;20149;-80
2022/04/05 17:43:57;;;;;;;15.70;6.30;;;;;;;;;;4827179;29;20746;-79
2022/04/05 17:46:35;;;;;;;15.18;7.22;;;;;;;;;;4838698;29;20374;-79
2022/04/05 17:49:28;;;;;;;18.08;6.60;;;;;;;;;;4856637;29;20096;-79
2022/04/05 17:51:56;;;;;;;16.73;5.82;;;;;;;;;;4906161;28;20083;-80
2022/04/05 17:54:39;;;;;;;13.82;6.00;;;;;;;;;;4910468;28;20064;-79
2022/04/05 17:57:07;;;;;;;12.65;5.65;;;;;;;;;;4925793;28;20060;-80
2022/04/05 17:59:33;;;;;;;12.65;5.57;;;;;;;;;;4928561;28;20084;-80
2022/04/05 18:02:01;;;;;;;15.73;6.13;;;;;;;;;;4928538;29;20056;-81
2022/04/05 18:04:27;;;;;;;16.23;6.10;;;;;;;;;;4926645;28;20052;-80
2022/04/05 18:06:53;;;;;;;12.98;5.68;;;;;;;;;;4927971;29;20083;-80
2022/04/05 18:09:20;;;;;;;12.90;5.35;;;;;;;;;;4958141;28;20070;-80
2022/04/05 18:11:46;;;;;;;14.98;4.70;;;;;;;;;;4983622;28;20089;-80
2022/04/05 18:14:12;;;;;;;15.77;4.80;;;;;;;;;;4988873;28;20145;-81
2022/04/05 18:16:39;;;;;;;15.18;4.72;;;;;;;;;;4985641;28;20050;-80
2022/04/05 18:19:05;;;;;;;13.70;5.43;;;;;;;;;;4989070;28;20722;-79
2022/04/05 18:21:32;;;;;;;15.80;5.13;;;;;;;;;;4983231;28;20509;-80
2022/04/05 18:24:00;;;;;;;15.90;5.38;;;;;;;;;;4987861;28;20137;-81
2022/04/05 18:26:26;;;;;;;14.43;5.13;;;;;;;;;;4987960;28;20066;-81
2022/04/05 18:28:53;;;;;;;13.45;5.85;;;;;;;;;;4989694;28;20051;-81
2022/04/05 18:31:19;;;;;;;15.40;5.60;;;;;;;;;;4987699;28;20157;-79
2022/04/05 18:33:45;;;;;;;17.88;5.20;;;;;;;;;;4971604;28;20609;-81
2022/04/05 18:36:12;;;;;;;11.25;5.13;;;;;;;;;;4968600;28;20106;-80
2022/04/05 18:38:39;;;;;;;15.93;5.65;;;;;;;;;;4974240;28;20557;-80
2022/04/05 18:41:05;;;;;;;15.30;5.65;;;;;;;;;;4974643;28;20086;-81
2022/04/05 18:43:32;;;;;;;16.08;7.50;;;;;;;;;;4976054;28;20560;-80
2022/04/05 18:45:58;;;;;;;12.65;6.88;;;;;;;;;;4977625;28;20087;-80
2022/04/05 18:48:25;;;;;;;15.05;6.53;;;;;;;;;;4990686;28;20055;-81
2022/04/05 18:50:54;;;;;;;17.15;6.13;;;;;;;;;;4986579;28;20064;-81
2022/04/05 18:53:22;;;;;;;18.77;6.43;;;;;;;;;;4971929;28;20082;-81
2022/04/05 18:55:50;;;;;;;22.50;6.53;;;;;;;;;;4988414;28;20148;-81
2022/04/05 18:58:18;;;;;;;15.52;6.53;;;;;;;;;;4985842;28;20071;-81
2022/04/05 19:00:44;;;;;;;21.05;6.90;;;;;;;;;;4989809;28;20063;-81
2022/04/05 19:03:11;;;;;;;21.02;6.63;;;;;;;;;;4972562;28;20165;-81
2022/04/05 19:05:37;;;;;;;18.73;7.68;;;;;;;;;;4978381;28;20514;-81
2022/04/05 19:08:05;;;;;;;20.63;6.97;;;;;;;;;;4988205;28;20105;-79
2022/04/05 19:10:32;;;;;;;17.70;6.97;;;;;;;;;;4984651;28;20907;-81
2022/04/05 19:12:59;;;;;;;21.90;7.38;;;;;;;;;;4990225;28;20153;-80
2022/04/05 19:15:25;;;;;;;18.00;6.85;;;;;;;;;;4970114;28;20066;-81
2022/04/05 19:17:52;;;;;;;19.38;7.03;;;;;;;;;;4989349;28;20145;-82
2022/04/05 19:20:19;;;;;;;20.02;7.38;;;;;;;;;;4972282;28;20117;-80
2022/04/05 19:22:47;;;;;;;20.98;7.60;;;;;;;;;;4987579;28;20141;-80
2022/04/05 19:25:14;;;;;;;19.27;7.35;;;;;;;;;;4988653;28;20058;-80
2022/04/05 19:27:41;;;;;;;17.15;7.70;;;;;;;;;;4989418;28;20559;-81
2022/04/05 19:30:08;;;;;;;17.92;8.07;;;;;;;;;;4988676;28;20138;-80
2022/04/05 19:32:37;;;;;;;16.27;7.63;;;;;;;;;;4988841;28;20105;-79
2022/04/05 19:35:04;;;;;;;20.67;8.50;;;;;;;;;;4966980;28;20721;-82
2022/04/05 19:37:31;;;;;;;23.27;7.50;;;;;;;;;;4998612;28;20592;-81
2022/04/05 19:39:57;;;;;;;22.15;7.53;;;;;;;;;;4970971;28;20696;-81
2022/04/05 19:42:24;;;;;;;22.08;8.40;;;;;;;;;;4972257;28;20161;-81
2022/04/05 19:44:51;;;;;;;20.35;7.40;;;;;;;;;;4971294;28;20153;-81
2022/04/05 19:47:18;;;;;;;20.67;7.60;;;;;;;;;;4985239;28;20082;-81
2022/04/05 19:49:44;;;;;;;16.30;7.40;;;;;;;;;;4987747;28;20058;-81
2022/04/05 19:52:12;;;;;;;23.73;8.30;;;;;;;;;;5003501;28;20055;-81
2022/04/05 19:54:38;;;;;;;21.70;7.65;;;;;;;;;;4988751;28;20183;-81
2022/04/05 19:57:07;;;;;;;20.88;8.65;;;;;;;;;;4982964;28;20142;-80
2022/04/05 19:59:34;;;;;;;21.10;6.72;;;;;;;;;;4986489;28;20087;-82
2022/04/05 20:02:03;;;;;;;20.40;7.32;;;;;;;;;;4971590;28;20082;-81
2022/04/05 20:04:33;;;;;;;18.35;7.50;;;;;;;;;;4975176;28;20091;-81
2022/04/05 20:07:02;;;;;;;19.35;7.05;;;;;;;;;;4989273;28;20066;-81
2022/04/05 20:09:28;;;;;;;17.17;6.40;;;;;;;;;;4974586;28;20054;-80
2022/04/05 20:11:56;;;;;;;20.92;7.00;;;;;;;;;;4974013;28;20121;-80
2022/04/05 20:14:22;;;;;;;22.00;7.80;;;;;;;;;;4973691;28;20059;-81
2022/04/05 20:19:33;;;;;;;17.35;7.78;;;;;;;;;;4987801;28;20138;-80
2022/04/05 20:22:00;;;;;;;23.60;7.65;;;;;;;;;;4992794;28;20063;-81
2022/04/05 20:24:26;;;;;;;20.70;7.57;;;;;;;;;;4991210;28;20509;-80
2022/04/05 20:26:54;;;;;;;19.35;6.50;;;;;;;;;;4974477;28;20109;-82
2022/04/05 20:29:21;;;;;;;26.08;8.18;;;;;;;;;;4965957;28;20829;-81
2022/04/05 20:31:47;;;;;;;27.05;8.27;;;;;;;;;;4990434;28;20580;-81
2022/04/05 20:34:15;;;;;;;24.45;8.20;;;;;;;;;;4991297;28;20520;-81
2022/04/05 20:36:42;;;;;;;20.73;7.40;;;;;;;;;;4991473;28;20815;-81
2022/04/05 20:39:10;;;;;;;20.08;8.18;;;;;;;;;;4973829;28;20054;-79